TimeCDT,TemperatureF,Dew PointF,Humidity,Sea Level PressureIn,VisibilityMPH,Wind Direction,Wind SpeedMPH,Gust SpeedMPH,PrecipitationIn,Events,Conditions,WindDirDegrees,DateUTC
12:53 AM,82.0,64.0,54,29.91,10.0,SSW,18.4,24.2,N/A,,Clear,200,2013-08-27 05:53:00
1:53 AM,80.1,64.0,58,29.91,10.0,SSW,13.8,20.7,N/A,,Clear,200,2013-08-27 06:53:00
2:53 AM,78.1,64.0,62,29.91,10.0,SSW,13.8,-,N/A,,Clear,200,2013-08-27 07:53:00
3:53 AM,77.0,64.0,64,29.92,10.0,SSW,13.8,-,N/A,,Clear,200,2013-08-27 08:53:00
4:53 AM,75.9,63.0,64,29.92,10.0,SSW,13.8,20.7,N/A,,Clear,200,2013-08-27 09:53:00
5:53 AM,73.9,64.0,71,29.92,10.0,SSW,13.8,-,N/A,,Clear,200,2013-08-27 10:53:00
6:53 AM,73.0,63.0,71,29.92,10.0,SSW,12.7,-,N/A,,Clear,200,2013-08-27 11:53:00
7:53 AM,73.9,63.0,68,29.93,10.0,SSW,13.8,-,N/A,,Clear,210,2013-08-27 12:53:00
8:53 AM,78.1,63.0,60,29.93,10.0,SW,13.8,19.6,N/A,,Clear,220,2013-08-27 13:53:00
9:53 AM,81.0,64.0,56,29.93,10.0,SSW,13.8,23.0,N/A,,Clear,210,2013-08-27 14:53:00
10:53 AM,84.9,64.0,49,29.93,10.0,SW,13.8,-,N/A,,Clear,230,2013-08-27 15:53:00
11:53 AM,88.0,66.0,48,29.93,10.0,SW,11.5,-,N/A,,Clear,230,2013-08-27 16:53:00
12:53 PM,90.0,66.9,46,29.91,10.0,SSW,16.1,-,N/A,,Clear,200,2013-08-27 17:53:00
1:53 PM,93.0,68.0,44,29.90,10.0,SSW,13.8,-,N/A,,Clear,200,2013-08-27 18:53:00
2:53 PM,95.0,66.0,38,29.89,10.0,South,13.8,23.0,N/A,,Clear,190,2013-08-27 19:53:00
3:53 PM,96.1,64.0,35,29.88,10.0,South,15.0,23.0,N/A,,Clear,180,2013-08-27 20:53:00
4:53 PM,97.0,64.0,34,29.88,10.0,South,13.8,-,N/A,,Clear,180,2013-08-27 21:53:00
5:53 PM,95.0,64.9,37,29.87,10.0,South,12.7,-,N/A,,Clear,180,2013-08-27 22:53:00
6:53 PM,91.0,66.0,44,29.87,10.0,SSE,10.4,-,N/A,,Clear,160,2013-08-27 23:53:00
7:53 PM,86.0,68.0,55,29.88,10.0,SSE,6.9,-,N/A,,Clear,160,2013-08-28 00:53:00
8:53 PM,82.0,64.9,56,29.88,10.0,South,9.2,-,N/A,,Clear,170,2013-08-28 01:53:00
9:53 PM,80.1,63.0,56,29.90,10.0,South,11.5,-,N/A,,Clear,180,2013-08-28 02:53:00
10:53 PM,77.0,62.1,60,29.90,10.0,South,9.2,-,N/A,,Clear,180,2013-08-28 03:53:00
11:53 PM,79.0,61.0,54,29.90,10.0,South,10.4,-,N/A,,Clear,190,2013-08-28 04:53:00